Estaciones Metar próximas

 

LELL - Sabadell, Spain
Distancia a la estación: E 18km
Actualizado: 22/05/2018 17:00
Tormenta, Parcialmente nuboso
Tormenta, Parcialmente nuboso
 Viento del SE
Viento: SE 15 km/h
Temperatura: 21°C
Rocío: 14°C
Humedad: 64%
Barómetro: 1014 hPa
Resumen: Tormenta
Nubes: Parcialmente nuboso
Visibilidad: 10 km
Detalle Nubes: Parcialmente nuboso 914 m
2018/05/22 15:00 LELL 221500Z 13008KT 080V170 9999 TS SCT030CB 21/14 Q1014
LEBL - Barcelona Airpor, Spain
Distancia a la estación: SSE 33km
Actualizado: 22/05/2018 17:00
Nubes dispersas
Nubes dispersas
 Viento del S
Viento: S 17 km/h
Temperatura: 21°C
Rocío: 16°C
Humedad: 73%
Barómetro: 1014 hPa
Nubes: Nubes dispersas
Visibilidad: 10 km
Detalle Nubes: Nubes dispersas 610 m
2018/05/22 15:00 LEBL 221500Z 18009KT 130V210 9999 FEW020 21/16 Q1014 TEMPO FEW035CB
LERS - Reus (civ/Mil), Spain
Distancia a la estación: SO 75km
Actualizado: 22/05/2018 17:00
Nubes dispersas
Nubes dispersas
 Viento del S
Viento: S 15 km/h
Temperatura: 23°C
Rocío: 16°C
Humedad: 65%
Barómetro: 1014 hPa
Nubes: Nubes dispersas
Visibilidad: 10 km
Detalle Nubes: Nubes dispersas 762 m
2018/05/22 15:00 LERS 221500Z 19008KT 140V240 9999 FEW025 23/16 Q1014
 
LEGE - Gerona/Costa Bra, Spain
Distancia a la estación: ENE 83km
Actualizado: 22/05/2018 17:00
Drizzle, Muy nuboso
Drizzle, Muy nuboso
 Viento del NO
Viento: NO 2 km/h
Temperatura: 15°C
Rocío: 15°C
Humedad: 100%
Barómetro: 1014 hPa
Resumen: Drizzle
Nubes: Muy nuboso
Visibilidad: 10 km
Detalle Nubes: Parcialmente nuboso 914 m
Muy nuboso 1829 m
2018/05/22 15:00 LEGE 221500Z 32001KT 9999 DZ SCT030 BKN060 15/15 Q1014
LFMP - Perpignan/Rivesa, France
Distancia a la estación: NNE 155km
Actualizado: 22/05/2018 17:00
Tormenta
Tormenta
 Viento del SSO
Viento: SSO 17 km/h
Temperatura: 19°C
Rocío: 16°C
Humedad: 83%
Barómetro: 1013 hPa
Nubes: Tormenta
Visibilidad: 10 km
Detalle Nubes: Nubes dispersas 914 m
Muy nuboso 2926 m
Muy nuboso 3353 m
2018/05/22 15:00 LFMP 221500Z AUTO 20009KT 9999 FEW030/// BKN096/// BKN110/// ///TCU 19/16 Q1013
LFMK - Carcassonne/Salv, France
Distancia a la estación: N 191km
Actualizado: 22/05/2018 17:00
Despejado
Despejado
 Viento del ONO
Viento: ONO 19 km/h
Temperatura: 23°C
Rocío: 12°C
Humedad: 50%
Barómetro: 1013 hPa
Resumen: Despejado
Visibilidad: greater than 10 km
2018/05/22 15:00 LFMK 221500Z AUTO 29010KT CAVOK 23/12 Q1013
 
LEHC - Huesca-Pirineos, Spain
Distancia a la estación: ONO 193km
Actualizado: 22/05/2018 17:00
Nubes dispersas
Nubes dispersas
 Viento del SO
Viento: SO 13 km/h
Temperatura: 23°C
Rocío: 9°C
Humedad: 41%
Barómetro: 1013 hPa
Nubes: Nubes dispersas
Visibilidad: 10 km
Detalle Nubes: Nubes dispersas 1219 m
2018/05/22 15:00 LEHC 221500Z 23007KT 200V280 9999 FEW040 23/09 Q1013
LFMU - Beziers/Vias, France
Distancia a la estación: NNE 232km
Actualizado: 22/05/2018 17:00
Tormenta
Tormenta
 Viento del S
Viento: S 22 km/h
Temperatura: 21°C
Rocío: 15°C
Humedad: 69%
Barómetro: 1013 hPa
Nubes: Tormenta
Visibilidad: 10 km
2018/05/22 15:00 LFMU 221500Z AUTO 19012KT 9999 ///CB 21/15 Q1013
LEPA - Palma De Mallorc, Spain
Distancia a la estación: SSE 233km
Actualizado: 22/05/2018 17:00
Nubes dispersas
Nubes dispersas
 Viento del SO
Viento: SO 20 km/h
Temperatura: 22°C
Rocío: 17°C
Humedad: 73%
Barómetro: 1015 hPa
Nubes: Nubes dispersas
Visibilidad: 10 km
Detalle Nubes: Nubes dispersas 549 m
Nubes dispersas 762 m
2018/05/22 15:00 LEPA 221500Z 22011KT 190V260 9999 FEW018 FEW025CB 22/17 Q1015 NOSIG
 
LFBO - Toulouse/Blagnac, France
Distancia a la estación: N 236km
Actualizado: 22/05/2018 17:00
Nubes dispersas
Nubes dispersas
 Viento del NNO
Viento: NNO 13 km/h
Temperatura: 23°C
Rocío: 11°C
Humedad: 47%
Barómetro: 1014 hPa
Nubes: Nubes dispersas
Visibilidad: 10 km
Detalle Nubes: Nubes dispersas 335 m
2018/05/22 15:00 LFBO 221500Z AUTO 33007KT 290V020 9999 FEW011 23/11 Q1014 TEMPO VRB15G25KT 4000 SHRA SCT060CB
LFBT - Tarbes/Ossun, France
Distancia a la estación: NO 239km
Actualizado: 22/05/2018 17:00
Nubes dispersas
Nubes dispersas
 Viento del N
Viento: N 7 km/h
Temperatura: 22°C
Rocío: 12°C
Humedad: 53%
Barómetro: 1014 hPa
Nubes: Nubes dispersas
Visibilidad: 10 km
Detalle Nubes: Nubes dispersas 1890 m
2018/05/22 15:00 LFBT 221500Z AUTO 01004KT 320V060 9999 FEW062 22/12 Q1014 TEMPO 4000 SHRA BKN030TCU
LEZG - Zaragoza (mil/Ci, Spain
Distancia a la estación: O 242km
Actualizado: 22/05/2018 17:00
Nubes dispersas
Nubes dispersas
 Viento del NO
Viento: NO 15 km/h
Temperatura: 26°C
Rocío: 5°C
Humedad: 26%
Barómetro: 1013 hPa
Nubes: Nubes dispersas
Visibilidad: 10 km
Detalle Nubes: Nubes dispersas 1219 m
2018/05/22 15:00 LEZG 221500Z 31008KT 230V010 9999 FEW040 26/05 Q1013